createdAt,value
2022-08-17T00:02:25.521Z,68.51
2022-08-17T00:04:50.728Z,69.00
2022-08-17T00:07:12.295Z,69.43
2022-08-17T00:09:33.733Z,70.21
2022-08-17T00:12:35.527Z,70.49
2022-08-17T00:14:36.895Z,69.89
2022-08-17T00:16:58.865Z,69.46
2022-08-17T00:19:23.872Z,70.00
2022-08-17T00:22:30.817Z,70.58
2022-08-17T00:24:29.793Z,71.91
2022-08-17T00:26:51.240Z,71.83
2022-08-17T00:29:19.704Z,72.97
2022-08-17T00:31:41.623Z,73.45
2022-08-17T00:34:05.167Z,72.47
2022-08-17T00:36:26.811Z,73.55
2022-08-17T00:38:48.266Z,73.97
2022-08-17T00:41:13.642Z,72.04
2022-08-17T00:44:00.945Z,70.91
2022-08-17T00:46:28.221Z,72.76
2022-08-17T00:48:50.771Z,72.03
2022-08-17T00:51:15.269Z,73.17
2022-08-17T00:53:41.959Z,72.96
2022-08-17T00:56:08.898Z,74.76
2022-08-17T00:58:36.325Z,74.42
2022-08-17T01:01:01.555Z,73.50
2022-08-17T01:03:26.007Z,71.30
2022-08-17T01:05:52.500Z,73.46
2022-08-17T01:08:16.652Z,73.27
2022-08-17T01:10:59.652Z,75.56
2022-08-17T01:13:24.675Z,75.57
2022-08-17T01:15:57.317Z,74.05
2022-08-17T01:18:19.243Z,73.62
2022-08-17T01:20:51.910Z,73.46
2022-08-17T01:23:20.427Z,73.82
2022-08-17T01:25:42.194Z,74.34
2022-08-17T01:28:04.397Z,74.18
2022-08-17T01:30:58.172Z,74.61
2022-08-17T01:33:11.397Z,74.97
2022-08-17T01:35:32.839Z,74.95
2022-08-17T01:37:54.291Z,74.42
2022-08-17T01:40:25.736Z,73.81
2022-08-17T01:42:51.381Z,72.83
2022-08-17T01:45:20.193Z,73.55
2022-08-17T01:47:41.781Z,75.23
2022-08-17T01:50:09.616Z,75.44
2022-08-17T01:52:31.142Z,75.17
2022-08-17T01:54:53.351Z,74.61
2022-08-17T01:57:14.984Z,75.21
2022-08-17T01:59:36.603Z,74.89
2022-08-17T02:01:58.433Z,76.77
2022-08-17T02:04:20.017Z,77.95
2022-08-17T02:06:52.522Z,78.21
2022-08-17T02:09:16.993Z,79.03
2022-08-17T02:11:40.136Z,79.03
2022-08-17T02:14:03.244Z,78.92
2022-08-17T02:16:25.318Z,76.96
2022-08-17T02:18:46.988Z,75.84
2022-08-17T02:21:09.115Z,76.14
2022-08-17T02:23:33.299Z,76.57
2022-08-17T02:25:57.644Z,77.22
2022-08-17T02:28:19.121Z,77.41
2022-08-17T02:30:59.513Z,78.07
2022-08-17T02:33:23.301Z,78.08
2022-08-17T02:36:05.520Z,78.12
2022-08-17T02:38:27.125Z,77.72
2022-08-17T02:40:48.563Z,76.86
2022-08-17T02:43:11.143Z,79.32
2022-08-17T02:45:32.697Z,79.31
2022-08-17T02:47:54.356Z,77.14
2022-08-17T02:50:18.310Z,77.29
2022-08-17T02:52:44.107Z,77.65
2022-08-17T02:55:07.506Z,78.86
2022-08-17T02:57:28.964Z,77.44
2022-08-17T02:59:50.469Z,77.42
2022-08-17T03:02:12.479Z,78.31
2022-08-17T03:04:35.412Z,77.40
2022-08-17T03:06:57.015Z,78.60
2022-08-17T03:09:18.530Z,79.49
2022-08-17T03:11:39.993Z,80.07
2022-08-17T03:14:01.503Z,79.56
2022-08-17T03:16:23.071Z,80.70
2022-08-17T03:18:44.513Z,80.64
2022-08-17T03:21:08.461Z,79.61
2022-08-17T03:23:30.427Z,79.73
2022-08-17T03:25:53.267Z,79.60
2022-08-17T03:28:17.064Z,78.90
2022-08-17T03:30:40.012Z,78.36
2022-08-17T03:33:04.873Z,78.46
2022-08-17T03:35:30.153Z,78.77
2022-08-17T03:38:00.383Z,79.73
2022-08-17T03:40:34.585Z,80.08
2022-08-17T03:43:09.369Z,81.00
2022-08-17T03:45:49.174Z,80.08
2022-08-17T03:48:31.943Z,79.37
2022-08-17T03:51:14.761Z,79.13
2022-08-17T03:54:24.843Z,78.70
2022-08-17T03:56:56.361Z,79.76
2022-08-17T03:59:22.555Z,80.09
2022-08-17T04:01:46.148Z,78.59
2022-08-17T04:04:07.711Z,80.46
2022-08-17T04:06:29.210Z,81.01
2022-08-17T04:08:50.718Z,80.89
2022-08-17T04:11:12.169Z,82.00
2022-08-17T04:13:33.635Z,81.87
2022-08-17T04:15:55.151Z,81.28
2022-08-17T04:18:17.308Z,82.29
2022-08-17T04:20:38.762Z,80.95
2022-08-17T04:23:02.216Z,80.15
2022-08-17T04:25:24.226Z,79.90
2022-08-17T04:27:45.691Z,81.49
2022-08-17T04:30:07.843Z,82.04
2022-08-17T04:33:04.467Z,81.53
2022-08-17T04:35:11.326Z,80.03
2022-08-17T04:37:32.859Z,80.86
2022-08-17T04:40:14.319Z,81.93
2022-08-17T04:42:35.787Z,83.70
2022-08-17T04:44:57.244Z,83.38
2022-08-17T04:47:18.683Z,81.63
2022-08-17T04:49:40.135Z,80.76
2022-08-17T04:52:04.553Z,80.75
2022-08-17T04:54:27.043Z,80.28
2022-08-17T04:56:48.644Z,80.75
2022-08-17T04:59:16.490Z,81.57
2022-08-17T05:01:41.146Z,81.54
2022-08-17T05:04:32.875Z,81.94
2022-08-17T05:06:49.641Z,81.06
2022-08-17T05:09:16.599Z,80.61
2022-08-17T05:11:38.360Z,80.72
2022-08-17T05:14:06.542Z,81.39
2022-08-17T05:16:29.836Z,81.81
2022-08-17T05:18:51.859Z,81.76
2022-08-17T05:21:13.438Z,81.80
2022-08-17T05:23:43.151Z,82.10
2022-08-17T05:26:05.235Z,81.76
2022-08-17T05:28:31.316Z,80.93
2022-08-17T05:30:54.277Z,81.67
2022-08-17T05:33:21.700Z,82.09
2022-08-17T05:35:47.329Z,81.88
2022-08-17T05:38:09.249Z,81.41
2022-08-17T05:40:32.818Z,81.77
2022-08-17T05:43:06.828Z,81.62
2022-08-17T05:45:54.454Z,81.43
2022-08-17T05:48:10.286Z,80.59
2022-08-17T05:50:46.431Z,79.93
2022-08-17T05:53:25.581Z,81.43
2022-08-17T05:56:29.159Z,80.99
2022-08-17T05:59:24.190Z,80.57
2022-08-17T06:01:58.028Z,80.75
2022-08-17T06:04:22.166Z,80.68
2022-08-17T06:06:55.801Z,80.48
2022-08-17T06:09:31.478Z,80.54
2022-08-17T06:12:14.442Z,80.33
2022-08-17T06:14:53.500Z,80.59
2022-08-17T06:17:18.934Z,80.29
2022-08-17T06:19:59.695Z,80.02
2022-08-17T06:22:26.244Z,80.01
2022-08-17T06:24:54.138Z,79.49
2022-08-17T06:27:43.876Z,79.43
2022-08-17T06:30:28.697Z,79.14
2022-08-17T06:33:22.197Z,79.28
2022-08-17T06:36:09.206Z,79.19
2022-08-17T06:38:41.256Z,78.91
2022-08-17T06:41:18.455Z,78.53
2022-08-17T06:43:53.284Z,78.75
2022-08-17T06:46:25.285Z,78.68
2022-08-17T06:48:58.621Z,78.97
2022-08-17T06:51:27.879Z,78.62
2022-08-17T06:53:59.721Z,78.37
2022-08-17T06:56:53.780Z,78.59
2022-08-17T06:59:24.946Z,77.81
2022-08-17T07:01:49.964Z,78.16
2022-08-17T07:04:21.723Z,77.80
2022-08-17T07:06:51.110Z,77.49
2022-08-17T07:09:35.564Z,77.20
2022-08-17T07:12:22.319Z,77.12
2022-08-17T07:14:53.390Z,76.61
2022-08-17T07:17:18.307Z,76.02
2022-08-17T07:19:44.394Z,75.79
2022-08-17T07:22:08.908Z,75.42
2022-08-17T07:24:37.287Z,74.88
2022-08-17T07:27:14.619Z,74.36
2022-08-17T07:29:40.607Z,73.65
2022-08-17T07:32:02.875Z,73.09
2022-08-17T07:34:24.347Z,72.97
2022-08-17T07:37:03.404Z,72.81
2022-08-17T07:39:27.864Z,71.95
2022-08-17T07:41:57.982Z,71.90
2022-08-17T07:44:20.803Z,70.11
2022-08-17T07:47:12.534Z,67.96
2022-08-17T07:49:37.235Z,64.44
2022-08-17T07:52:47.508Z,64.35
2022-08-17T07:54:43.553Z,63.32
2022-08-17T07:57:12.707Z,64.20
2022-08-17T07:59:36.827Z,61.19
2022-08-17T08:01:58.357Z,59.04
2022-08-17T08:07:18.946Z,53.99
2022-08-17T08:09:44.322Z,51.38
2022-08-17T08:12:33.339Z,51.01
2022-08-17T08:15:26.530Z,50.36
2022-08-17T08:17:59.955Z,49.48
2022-08-17T08:20:52.231Z,48.09
2022-08-17T08:23:36.295Z,46.00
2022-08-17T08:26:18.565Z,46.80
2022-08-17T08:28:55.422Z,45.06
2022-08-17T08:31:41.638Z,44.04
2022-08-17T08:35:00.615Z,43.96
2022-08-17T08:37:42.895Z,44.12
2022-08-17T08:40:21.639Z,41.97
2022-08-17T08:43:02.447Z,41.79
2022-08-17T08:45:43.958Z,42.43
2022-08-17T08:48:53.123Z,41.02
2022-08-17T08:51:32.301Z,40.62
2022-08-17T08:54:17.082Z,39.85
2022-08-17T08:57:34.180Z,38.97
2022-08-17T09:00:17.749Z,39.32
2022-08-17T09:02:45.461Z,39.46
2022-08-17T09:05:56.042Z,38.95
2022-08-17T09:08:59.905Z,39.17
2022-08-17T09:12:01.755Z,38.25
2022-08-17T09:14:31.334Z,38.65
2022-08-17T09:17:43.260Z,38.15
2022-08-17T09:20:36.779Z,38.00
2022-08-17T09:23:08.025Z,37.67
2022-08-17T09:25:35.018Z,36.56
2022-08-17T09:28:04.565Z,36.56
2022-08-17T09:30:47.067Z,35.72
2022-08-17T09:33:11.383Z,36.14
2022-08-17T09:35:39.429Z,35.65
2022-08-17T09:38:16.090Z,34.68
2022-08-17T09:40:40.519Z,34.87
2022-08-17T09:43:22.101Z,35.08
2022-08-17T09:45:52.027Z,33.63
2022-08-17T09:48:24.473Z,33.50
2022-08-17T09:51:06.504Z,33.26
2022-08-17T09:53:31.788Z,32.65
2022-08-17T09:56:05.905Z,32.78
2022-08-17T09:59:03.315Z,32.65
2022-08-17T10:01:36.777Z,32.47
2022-08-17T10:04:38.176Z,32.48
2022-08-17T10:07:00.828Z,32.04
2022-08-17T10:09:45.750Z,31.80
2022-08-17T10:12:30.216Z,31.74
2022-08-17T10:15:33.498Z,31.54
2022-08-17T10:18:23.839Z,31.40
2022-08-17T10:21:27.713Z,30.32
2022-08-17T10:24:18.127Z,30.51
2022-08-17T10:26:55.977Z,31.02
2022-08-17T10:29:28.928Z,30.19
2022-08-17T10:31:59.509Z,30.12
2022-08-17T10:34:41.562Z,29.99
2022-08-17T10:37:19.611Z,31.07
2022-08-17T10:40:03.417Z,30.23
2022-08-17T10:42:32.960Z,30.62
2022-08-17T10:45:17.042Z,30.94
2022-08-17T10:48:06.076Z,29.76
2022-08-17T10:50:58.417Z,30.84
2022-08-17T10:53:31.818Z,30.34
2022-08-17T10:56:11.597Z,30.09
2022-08-17T10:58:46.552Z,29.67
2022-08-17T11:01:12.713Z,29.41
2022-08-17T11:03:34.515Z,29.02
2022-08-17T11:06:05.249Z,29.24
2022-08-17T11:09:11.551Z,29.16
2022-08-17T11:11:45.322Z,29.41
2022-08-17T11:14:17.984Z,30.23
2022-08-17T11:16:58.928Z,30.79
2022-08-17T11:19:58.835Z,30.16
2022-08-17T11:22:49.879Z,30.84
2022-08-17T11:25:20.766Z,31.67
2022-08-17T11:27:43.942Z,31.21
2022-08-17T11:30:11.058Z,32.61
2022-08-17T11:32:54.447Z,32.46
2022-08-17T11:35:22.645Z,32.76
2022-08-17T11:38:15.898Z,33.49
2022-08-17T11:40:58.696Z,34.03
2022-08-17T11:43:42.952Z,34.35
2022-08-17T11:46:20.123Z,34.94
2022-08-17T11:49:28.790Z,34.79
2022-08-17T11:52:01.695Z,34.19
2022-08-17T11:54:44.007Z,33.42
2022-08-17T11:57:25.379Z,32.90
2022-08-17T11:59:46.789Z,32.42
2022-08-17T12:02:32.911Z,32.11
2022-08-17T12:05:27.396Z,31.75
2022-08-17T12:07:53.798Z,31.08
2022-08-17T12:10:19.039Z,31.27
2022-08-17T12:12:43.503Z,30.73
2022-08-17T12:15:11.938Z,30.95
2022-08-17T12:17:40.691Z,31.52
2022-08-17T12:20:12.924Z,31.82
2022-08-17T12:22:53.773Z,31.72
2022-08-17T12:25:26.499Z,32.13
2022-08-17T12:28:05.056Z,32.31
2022-08-17T12:30:28.531Z,32.61
2022-08-17T12:32:51.035Z,32.66
2022-08-17T12:35:33.222Z,32.99
2022-08-17T12:37:57.766Z,33.05
2022-08-17T12:40:22.849Z,33.75
2022-08-17T12:42:56.134Z,33.37
2022-08-17T12:45:29.362Z,34.29
2022-08-17T12:48:02.733Z,34.46
2022-08-17T12:50:28.229Z,34.60
2022-08-17T12:52:51.484Z,34.22
2022-08-17T12:55:22.983Z,34.17
2022-08-17T12:57:51.548Z,33.92
2022-08-17T13:00:21.003Z,35.53
2022-08-17T13:02:53.078Z,36.66
2022-08-17T13:05:31.527Z,35.46
2022-08-17T13:07:54.590Z,35.12
2022-08-17T13:10:34.457Z,35.20
2022-08-17T13:12:56.370Z,35.67
2022-08-17T13:15:29.812Z,36.55
2022-08-17T13:18:04.184Z,36.30
2022-08-17T13:20:25.968Z,35.70
2022-08-17T13:22:56.402Z,35.30
2022-08-17T13:25:18.122Z,36.43
2022-08-17T13:27:43.059Z,35.81
2022-08-17T13:30:11.667Z,36.12
2022-08-17T13:32:43.855Z,37.08
2022-08-17T13:35:40.034Z,36.89
2022-08-17T13:38:14.985Z,36.53
2022-08-17T13:40:41.674Z,36.41
2022-08-17T13:43:04.017Z,36.68
2022-08-17T13:45:35.506Z,37.04
2022-08-17T13:48:15.772Z,36.60
2022-08-17T13:50:40.921Z,36.80
2022-08-17T13:53:02.857Z,36.72
2022-08-17T13:55:27.867Z,37.42
2022-08-17T13:58:03.579Z,37.29
2022-08-17T14:00:34.096Z,37.24
2022-08-17T14:02:57.800Z,37.71
2022-08-17T14:05:19.325Z,37.27
2022-08-17T14:07:40.964Z,38.02
2022-08-17T14:10:07.376Z,37.54
2022-08-17T14:12:31.653Z,36.70
2022-08-17T14:14:55.976Z,36.78
2022-08-17T14:17:17.567Z,37.53
2022-08-17T14:19:39.585Z,37.23
2022-08-17T14:22:01.723Z,37.95
2022-08-17T14:24:26.975Z,37.50
2022-08-17T14:26:49.660Z,37.15
2022-08-17T14:29:15.538Z,36.86
2022-08-17T14:31:38.977Z,37.11
2022-08-17T14:34:00.431Z,39.80
2022-08-17T14:36:22.465Z,41.35
2022-08-17T14:38:45.039Z,40.10
2022-08-17T14:41:06.609Z,40.87
2022-08-17T14:43:28.098Z,41.13
2022-08-17T14:45:49.620Z,40.40
2022-08-17T14:48:11.275Z,39.80
2022-08-17T14:50:35.439Z,39.58
2022-08-17T14:52:58.012Z,40.03
2022-08-17T14:55:20.766Z,41.02
2022-08-17T14:57:42.314Z,41.53
2022-08-17T15:00:05.245Z,40.01
2022-08-17T15:02:29.711Z,39.42
2022-08-17T15:04:52.050Z,39.33
2022-08-17T15:07:16.462Z,39.66
2022-08-17T15:09:37.895Z,39.28
2022-08-17T15:12:02.184Z,39.04
2022-08-17T15:14:23.696Z,37.96
2022-08-17T15:16:45.174Z,38.16
2022-08-17T15:19:07.867Z,36.68
2022-08-17T15:21:29.685Z,35.95
2022-08-17T15:23:51.125Z,35.45
2022-08-17T15:26:12.596Z,35.53
2022-08-17T15:28:34.065Z,34.28
2022-08-17T15:30:55.563Z,33.95
2022-08-17T15:33:20.443Z,34.28
2022-08-17T15:35:42.890Z,34.67
2022-08-17T15:38:11.561Z,34.27
2022-08-17T15:40:36.728Z,33.67
2022-08-17T15:42:59.153Z,33.40
2022-08-17T15:45:24.872Z,33.81
2022-08-17T15:48:00.661Z,34.47
2022-08-17T15:50:22.487Z,34.02
2022-08-17T15:52:44.979Z,33.73
2022-08-17T15:55:10.749Z,33.71
2022-08-17T15:57:33.340Z,33.71
2022-08-17T15:59:58.414Z,33.26
2022-08-17T16:03:15.059Z,32.56
2022-08-17T16:05:11.868Z,32.31
2022-08-17T16:07:35.262Z,31.56
2022-08-17T16:09:56.727Z,31.63
2022-08-17T16:12:20.541Z,31.93
2022-08-17T16:14:43.480Z,31.97
2022-08-17T16:17:05.938Z,32.76
2022-08-17T16:19:48.004Z,32.48
2022-08-17T16:22:11.535Z,32.09
2022-08-17T16:24:35.652Z,32.53
2022-08-17T16:26:57.151Z,33.06
2022-08-17T16:29:18.661Z,32.70
2022-08-17T16:31:41.769Z,33.20
2022-08-17T16:34:17.670Z,33.61
2022-08-17T16:36:40.112Z,34.19
2022-08-17T16:39:01.636Z,34.60
2022-08-17T16:41:41.923Z,34.61
2022-08-17T16:44:04.558Z,33.42
2022-08-17T16:46:26.045Z,32.06
2022-08-17T16:48:47.919Z,31.73
2022-08-17T16:51:09.375Z,30.57
2022-08-17T16:53:30.849Z,30.43
2022-08-17T16:55:52.348Z,31.29
2022-08-17T16:58:14.543Z,31.27
2022-08-17T17:00:37.199Z,30.54
2022-08-17T17:03:19.101Z,29.97
2022-08-17T17:05:59.482Z,30.25
2022-08-17T17:08:26.783Z,30.91
2022-08-17T17:10:52.661Z,31.70
2022-08-17T17:13:24.535Z,32.04
2022-08-17T17:15:54.271Z,32.67
2022-08-17T17:18:15.893Z,33.00
2022-08-17T17:20:47.702Z,33.69
2022-08-17T17:23:18.217Z,34.25
2022-08-17T17:26:03.312Z,35.00
2022-08-17T17:28:39.100Z,36.03
2022-08-17T17:31:16.884Z,36.51
2022-08-17T17:33:43.425Z,36.99
2022-08-17T17:36:08.642Z,37.24
2022-08-17T17:38:37.756Z,37.52
2022-08-17T17:41:07.323Z,38.58
2022-08-17T17:43:39.012Z,39.01
2022-08-17T17:46:28.459Z,38.98
2022-08-17T17:48:49.695Z,38.65
2022-08-17T17:52:08.587Z,39.67
2022-08-17T17:54:42.164Z,39.73
2022-08-17T17:57:14.177Z,39.16
2022-08-17T17:59:48.523Z,39.05
2022-08-17T18:02:51.603Z,39.58
2022-08-17T18:05:18.051Z,40.14
2022-08-17T18:08:10.948Z,41.34
2022-08-17T18:10:41.487Z,41.42
2022-08-17T18:13:21.140Z,42.06
2022-08-17T18:15:51.120Z,41.63
2022-08-17T18:18:16.020Z,41.94
2022-08-17T18:20:43.603Z,42.47
2022-08-17T18:23:18.300Z,42.81
2022-08-17T18:25:51.978Z,43.33
2022-08-17T18:28:39.764Z,42.58
2022-08-17T18:31:07.315Z,43.50
2022-08-17T18:33:29.113Z,43.89
2022-08-17T18:35:58.860Z,44.37
2022-08-17T18:38:36.087Z,45.61
2022-08-17T18:41:19.884Z,46.34
2022-08-17T18:43:53.210Z,46.65
2022-08-17T18:46:29.292Z,47.43
2022-08-17T18:49:06.805Z,47.77
2022-08-17T18:51:43.310Z,48.71
2022-08-17T18:54:31.496Z,48.92
2022-08-17T18:57:00.168Z,49.32
2022-08-17T18:59:27.483Z,48.78
2022-08-17T19:02:20.579Z,50.36
2022-08-17T19:05:13.425Z,50.58
2022-08-17T19:07:45.166Z,50.41
2022-08-17T19:10:16.218Z,50.10
2022-08-17T19:12:55.050Z,49.64
2022-08-17T19:15:33.209Z,50.24
2022-08-17T19:18:00.492Z,50.19
2022-08-17T19:20:29.592Z,50.50
2022-08-17T19:23:21.192Z,50.98
2022-08-17T19:25:52.691Z,50.99
2022-08-17T19:28:29.024Z,51.15
2022-08-17T19:30:56.097Z,51.74
2022-08-17T19:33:17.806Z,51.55
2022-08-17T19:35:49.521Z,52.01
2022-08-17T19:38:38.942Z,52.32
2022-08-17T19:41:14.919Z,52.77
2022-08-17T19:43:47.889Z,53.83
2022-08-17T19:46:26.091Z,53.80
2022-08-17T19:49:03.957Z,53.92
2022-08-17T19:51:40.909Z,54.32
2022-08-17T19:54:15.089Z,55.24
2022-08-17T19:56:58.570Z,55.11
2022-08-17T19:59:28.981Z,54.63
2022-08-17T20:02:03.704Z,54.46
2022-08-17T20:04:31.974Z,54.51
2022-08-17T20:06:57.387Z,54.27
2022-08-17T20:09:36.526Z,54.31
2022-08-17T20:12:04.887Z,54.39
2022-08-17T20:14:53.574Z,54.04
2022-08-17T20:17:17.964Z,55.24
2022-08-17T20:20:02.544Z,56.04
2022-08-17T20:22:36.906Z,55.91
2022-08-17T20:25:30.448Z,56.54
2022-08-17T20:28:21.218Z,56.77
2022-08-17T20:30:43.639Z,56.39
2022-08-17T20:33:21.634Z,57.40
2022-08-17T20:36:19.919Z,58.03
2022-08-17T20:38:51.195Z,57.60
2022-08-17T20:41:14.994Z,57.74
2022-08-17T20:43:39.215Z,58.54
2022-08-17T20:46:22.467Z,59.72
2022-08-17T20:48:49.332Z,61.26
2022-08-17T20:53:52.132Z,61.71
2022-08-17T20:56:44.340Z,60.11
2022-08-17T20:59:05.898Z,60.78
2022-08-17T21:01:40.481Z,61.51
2022-08-17T21:04:07.002Z,61.70
2022-08-17T21:06:28.517Z,61.10
2022-08-17T21:09:12.744Z,60.24
2022-08-17T21:12:02.734Z,60.66
2022-08-17T21:14:32.685Z,60.97
2022-08-17T21:17:18.837Z,62.40
2022-08-17T21:20:13.812Z,62.54
2022-08-17T21:23:05.262Z,62.75
2022-08-17T21:25:39.126Z,61.18
2022-08-17T21:28:38.154Z,62.25
2022-08-17T21:31:35.678Z,63.27
2022-08-17T21:34:20.743Z,64.11
2022-08-17T21:36:43.989Z,64.91
2022-08-17T21:39:09.726Z,63.71
2022-08-17T21:41:46.797Z,64.37
2022-08-17T21:44:27.821Z,65.61
2022-08-17T21:46:54.177Z,65.24
2022-08-17T21:49:19.446Z,65.89
2022-08-17T21:51:50.928Z,64.64
2022-08-17T21:54:35.465Z,64.87
2022-08-17T21:56:59.246Z,65.49
2022-08-17T21:59:28.145Z,65.38
2022-08-17T22:02:18.363Z,65.81
2022-08-17T22:04:41.939Z,64.93
2022-08-17T22:07:08.132Z,65.61
2022-08-17T22:09:42.336Z,66.40
2022-08-17T22:12:19.658Z,66.73
2022-08-17T22:14:53.027Z,68.46
2022-08-17T22:17:20.986Z,67.50
2022-08-17T22:19:50.491Z,68.31
2022-08-17T22:22:30.582Z,68.50
2022-08-17T22:24:57.956Z,67.49
2022-08-17T22:27:19.584Z,68.26
2022-08-17T22:29:57.967Z,67.48
2022-08-17T22:32:41.371Z,67.91
2022-08-17T22:35:37.120Z,70.20
2022-08-17T22:38:20.097Z,70.14
2022-08-17T22:40:41.610Z,68.12
2022-08-17T22:43:03.769Z,70.91
2022-08-17T22:45:29.782Z,70.45
2022-08-17T22:47:56.156Z,69.16
2022-08-17T22:50:26.967Z,69.43
2022-08-17T22:53:22.703Z,69.43
2022-08-17T22:56:12.704Z,72.83
2022-08-17T22:58:59.106Z,72.28
2022-08-17T23:01:33.370Z,71.95
2022-08-17T23:04:03.067Z,71.44
2022-08-17T23:06:24.864Z,71.85
2022-08-17T23:08:54.434Z,71.79
2022-08-17T23:11:16.329Z,71.14
2022-08-17T23:13:37.949Z,70.57
2022-08-17T23:15:59.591Z,70.85
2022-08-17T23:18:21.887Z,71.82
2022-08-17T23:20:44.088Z,73.37
2022-08-17T23:23:07.141Z,73.19
2022-08-17T23:25:31.130Z,73.44
2022-08-17T23:27:52.831Z,71.59
2022-08-17T23:30:14.599Z,71.87
2022-08-17T23:32:39.141Z,72.72
2022-08-17T23:35:12.470Z,72.94
2022-08-17T23:37:33.903Z,72.75
2022-08-17T23:39:55.433Z,73.10
2022-08-17T23:42:21.826Z,72.24
2022-08-17T23:44:43.841Z,72.06
2022-08-17T23:47:06.423Z,73.18
2022-08-17T23:49:28.721Z,73.86
2022-08-17T23:51:50.243Z,73.80
2022-08-17T23:54:35.531Z,74.20
2022-08-17T23:56:56.984Z,73.39
2022-08-17T23:59:21.411Z,73.36
